sensor_id;sensor_type;location;lat;lon;timestamp;pressure;altitude;pressure_sealevel;temperature;humidity
73671;BME280;61968;48.178;11.566;2023-03-14T00:00:57;94324.06;;;11.51;40.55
73671;BME280;61968;48.178;11.566;2023-03-14T00:03:24;94325.13;;;11.50;40.28
73671;BME280;61968;48.178;11.566;2023-03-14T00:05:50;94311.06;;;11.54;40.16
73671;BME280;61968;48.178;11.566;2023-03-14T00:08:17;94300.53;;;11.44;40.53
73671;BME280;61968;48.178;11.566;2023-03-14T00:10:46;94287.59;;;11.43;40.48
73671;BME280;61968;48.178;11.566;2023-03-14T00:13:13;94282.28;;;11.43;40.37
73671;BME280;61968;48.178;11.566;2023-03-14T00:15:39;94274.88;;;11.40;40.75
73671;BME280;61968;48.178;11.566;2023-03-14T00:18:05;94293.19;;;11.31;41.01
73671;BME280;61968;48.178;11.566;2023-03-14T00:20:32;94290.78;;;11.29;40.98
73671;BME280;61968;48.178;11.566;2023-03-14T00:22:58;94313.25;;;11.37;41.07
73671;BME280;61968;48.178;11.566;2023-03-14T00:25:25;94309.84;;;11.37;40.76
73671;BME280;61968;48.178;11.566;2023-03-14T00:27:53;94301.34;;;11.35;40.92
73671;BME280;61968;48.178;11.566;2023-03-14T00:30:19;94300.03;;;11.37;40.80
73671;BME280;61968;48.178;11.566;2023-03-14T00:32:46;94280.13;;;11.45;40.53
73671;BME280;61968;48.178;11.566;2023-03-14T00:35:13;94270.09;;;11.47;40.53
73671;BME280;61968;48.178;11.566;2023-03-14T00:37:39;94277.47;;;11.50;40.38
73671;BME280;61968;48.178;11.566;2023-03-14T00:40:07;94279.88;;;11.46;40.48
73671;BME280;61968;48.178;11.566;2023-03-14T00:42:34;94284.88;;;11.58;40.31
73671;BME280;61968;48.178;11.566;2023-03-14T00:45:02;94290.44;;;11.51;40.67
73671;BME280;61968;48.178;11.566;2023-03-14T00:47:30;94292.06;;;11.42;40.73
73671;BME280;61968;48.178;11.566;2023-03-14T00:49:56;94315.38;;;11.30;41.29
73671;BME280;61968;48.178;11.566;2023-03-14T00:52:23;94323.06;;;11.21;41.49
73671;BME280;61968;48.178;11.566;2023-03-14T00:54:49;94309.06;;;11.21;41.41
73671;BME280;61968;48.178;11.566;2023-03-14T00:57:15;94304.56;;;11.26;41.25
73671;BME280;61968;48.178;11.566;2023-03-14T00:59:42;94304.31;;;11.23;41.34
73671;BME280;61968;48.178;11.566;2023-03-14T01:02:10;94309.09;;;11.11;41.68
73671;BME280;61968;48.178;11.566;2023-03-14T01:04:36;94318.09;;;11.10;42.16
73671;BME280;61968;48.178;11.566;2023-03-14T01:07:04;94326.28;;;11.13;41.90
73671;BME280;61968;48.178;11.566;2023-03-14T01:09:31;94313.84;;;11.19;41.98
73671;BME280;61968;48.178;11.566;2023-03-14T01:11:57;94331.28;;;11.20;42.10
73671;BME280;61968;48.178;11.566;2023-03-14T01:14:24;94332.63;;;11.12;42.73
73671;BME280;61968;48.178;11.566;2023-03-14T01:16:50;94342.44;;;11.06;43.03
73671;BME280;61968;48.178;11.566;2023-03-14T01:19:18;94337.41;;;10.90;43.40
73671;BME280;61968;48.178;11.566;2023-03-14T01:21:44;94348.53;;;11.07;43.02
73671;BME280;61968;48.178;11.566;2023-03-14T01:24:11;94348.00;;;10.84;43.95
73671;BME280;61968;48.178;11.566;2023-03-14T01:26:38;94353.03;;;10.86;44.16
73671;BME280;61968;48.178;11.566;2023-03-14T01:29:04;94352.19;;;11.26;44.21
73671;BME280;61968;48.178;11.566;2023-03-14T01:31:31;94357.47;;;11.31;43.50
73671;BME280;61968;48.178;11.566;2023-03-14T01:33:57;94361.69;;;11.27;43.75
73671;BME280;61968;48.178;11.566;2023-03-14T01:36:25;94355.91;;;11.20;44.05
73671;BME280;61968;48.178;11.566;2023-03-14T01:38:52;94357.78;;;11.04;44.46
73671;BME280;61968;48.178;11.566;2023-03-14T01:41:21;94369.16;;;11.05;44.62
73671;BME280;61968;48.178;11.566;2023-03-14T01:43:49;94366.22;;;10.91;45.08
73671;BME280;61968;48.178;11.566;2023-03-14T01:46:32;94363.88;;;10.90;45.17
73671;BME280;61968;48.178;11.566;2023-03-14T01:49:04;94353.81;;;10.76;45.48
73671;BME280;61968;48.178;11.566;2023-03-14T01:51:40;94367.53;;;10.63;45.81
73671;BME280;61968;48.178;11.566;2023-03-14T01:54:13;94371.22;;;10.57;46.09
73671;BME280;61968;48.178;11.566;2023-03-14T01:56:40;94364.84;;;10.32;46.10
73671;BME280;61968;48.178;11.566;2023-03-14T01:59:09;94363.56;;;10.40;46.48
73671;BME280;61968;48.178;11.566;2023-03-14T02:01:37;94369.34;;;10.27;46.87
73671;BME280;61968;48.178;11.566;2023-03-14T02:04:07;94364.25;;;9.42;48.40
73671;BME280;61968;48.178;11.566;2023-03-14T02:06:42;94368.66;;;9.26;49.44
73671;BME280;61968;48.178;11.566;2023-03-14T02:09:10;94370.59;;;8.98;49.84
73671;BME280;61968;48.178;11.566;2023-03-14T02:11:37;94361.19;;;9.18;50.06
73671;BME280;61968;48.178;11.566;2023-03-14T02:14:04;94344.00;;;9.53;48.50
73671;BME280;61968;48.178;11.566;2023-03-14T02:16:31;94343.50;;;9.66;48.05
73671;BME280;61968;48.178;11.566;2023-03-14T02:18:58;94344.84;;;9.68;47.57
73671;BME280;61968;48.178;11.566;2023-03-14T02:21:33;94334.44;;;9.41;47.79
73671;BME280;61968;48.178;11.566;2023-03-14T02:24:09;94321.47;;;8.55;50.24
73671;BME280;61968;48.178;11.566;2023-03-14T02:26:43;94325.03;;;8.39;50.79
73671;BME280;61968;48.178;11.566;2023-03-14T02:29:11;94311.47;;;8.89;49.99
73671;BME280;61968;48.178;11.566;2023-03-14T02:31:38;94295.88;;;9.30;48.65
73671;BME280;61968;48.178;11.566;2023-03-14T02:34:05;94271.66;;;9.43;47.68
73671;BME280;61968;48.178;11.566;2023-03-14T02:36:32;94260.63;;;9.57;47.00
73671;BME280;61968;48.178;11.566;2023-03-14T02:39:05;94237.19;;;9.70;46.48
73671;BME280;61968;48.178;11.566;2023-03-14T02:41:34;94233.25;;;9.78;46.49
73671;BME280;61968;48.178;11.566;2023-03-14T02:44:01;94204.50;;;9.92;46.25
73671;BME280;61968;48.178;11.566;2023-03-14T02:46:29;94193.66;;;9.93;46.40
73671;BME280;61968;48.178;11.566;2023-03-14T02:48:58;94182.03;;;9.84;46.17
73671;BME280;61968;48.178;11.566;2023-03-14T02:51:27;94185.75;;;9.88;46.25
73671;BME280;61968;48.178;11.566;2023-03-14T02:53:54;94175.72;;;10.31;47.19
73671;BME280;61968;48.178;11.566;2023-03-14T02:56:21;94166.72;;;10.17;45.99
73671;BME280;61968;48.178;11.566;2023-03-14T02:58:47;94165.69;;;9.87;46.13
73671;BME280;61968;48.178;11.566;2023-03-14T03:01:14;94170.38;;;9.55;46.44
73671;BME280;61968;48.178;11.566;2023-03-14T03:03:41;94183.78;;;9.43;46.56
73671;BME280;61968;48.178;11.566;2023-03-14T03:06:08;94197.19;;;9.16;47.46
73671;BME280;61968;48.178;11.566;2023-03-14T03:08:34;94194.56;;;9.21;46.91
73671;BME280;61968;48.178;11.566;2023-03-14T03:11:02;94210.22;;;8.85;47.35
73671;BME280;61968;48.178;11.566;2023-03-14T03:13:29;94200.88;;;9.10;46.81
73671;BME280;61968;48.178;11.566;2023-03-14T03:15:56;94207.69;;;9.06;47.11
73671;BME280;61968;48.178;11.566;2023-03-14T03:18:22;94211.09;;;9.01;46.98
73671;BME280;61968;48.178;11.566;2023-03-14T03:20:50;94207.66;;;8.95;47.60
73671;BME280;61968;48.178;11.566;2023-03-14T03:23:16;94208.19;;;9.02;47.42
73671;BME280;61968;48.178;11.566;2023-03-14T03:25:48;94200.09;;;8.67;47.84
73671;BME280;61968;48.178;11.566;2023-03-14T03:28:14;94190.84;;;8.59;47.97
73671;BME280;61968;48.178;11.566;2023-03-14T03:30:41;94201.34;;;9.01;47.20
73671;BME280;61968;48.178;11.566;2023-03-14T03:33:08;94199.31;;;9.19;46.51
73671;BME280;61968;48.178;11.566;2023-03-14T03:35:34;94196.28;;;8.90;46.81
73671;BME280;61968;48.178;11.566;2023-03-14T03:38:02;94191.09;;;9.10;46.27
73671;BME280;61968;48.178;11.566;2023-03-14T03:40:31;94185.81;;;9.05;46.36
73671;BME280;61968;48.178;11.566;2023-03-14T03:42:58;94177.34;;;8.50;47.02
73671;BME280;61968;48.178;11.566;2023-03-14T03:45:25;94174.72;;;8.50;47.25
73671;BME280;61968;48.178;11.566;2023-03-14T03:47:52;94186.97;;;8.72;46.37
73671;BME280;61968;48.178;11.566;2023-03-14T03:50:18;94179.00;;;8.62;46.66
73671;BME280;61968;48.178;11.566;2023-03-14T03:52:45;94180.28;;;8.59;47.26
73671;BME280;61968;48.178;11.566;2023-03-14T03:55:13;94181.50;;;8.84;46.33
73671;BME280;61968;48.178;11.566;2023-03-14T03:57:39;94180.66;;;8.73;46.04
73671;BME280;61968;48.178;11.566;2023-03-14T04:00:06;94166.19;;;8.80;45.96
73671;BME280;61968;48.178;11.566;2023-03-14T04:02:34;94163.31;;;8.87;45.28
73671;BME280;61968;48.178;11.566;2023-03-14T04:05:00;94168.38;;;8.46;46.03
73671;BME280;61968;48.178;11.566;2023-03-14T04:07:27;94163.34;;;8.45;45.94
73671;BME280;61968;48.178;11.566;2023-03-14T04:09:53;94165.38;;;8.32;45.65
73671;BME280;61968;48.178;11.566;2023-03-14T04:12:21;94171.66;;;7.89;46.36
73671;BME280;61968;48.178;11.566;2023-03-14T04:14:48;94174.84;;;7.64;47.15
73671;BME280;61968;48.178;11.566;2023-03-14T04:17:14;94177.56;;;8.01;46.12
73671;BME280;61968;48.178;11.566;2023-03-14T04:19:41;94166.47;;;7.99;45.95
73671;BME280;61968;48.178;11.566;2023-03-14T04:22:07;94164.59;;;7.95;46.62
73671;BME280;61968;48.178;11.566;2023-03-14T04:24:34;94165.09;;;7.59;47.77
73671;BME280;61968;48.178;11.566;2023-03-14T04:27:00;94162.16;;;7.83;47.15
73671;BME280;61968;48.178;11.566;2023-03-14T04:29:28;94149.59;;;7.95;46.84
73671;BME280;61968;48.178;11.566;2023-03-14T04:31:54;94145.41;;;7.99;46.20
73671;BME280;61968;48.178;11.566;2023-03-14T04:34:21;94150.19;;;8.02;46.33
73671;BME280;61968;48.178;11.566;2023-03-14T04:36:47;94138.53;;;8.35;45.13
73671;BME280;61968;48.178;11.566;2023-03-14T04:39:14;94140.53;;;7.81;46.39
73671;BME280;61968;48.178;11.566;2023-03-14T04:41:40;94139.59;;;7.92;46.57
73671;BME280;61968;48.178;11.566;2023-03-14T04:44:07;94142.09;;;8.14;45.38
73671;BME280;61968;48.178;11.566;2023-03-14T04:46:34;94148.00;;;7.94;46.01
73671;BME280;61968;48.178;11.566;2023-03-14T04:49:01;94152.69;;;7.87;46.16
73671;BME280;61968;48.178;11.566;2023-03-14T04:51:27;94142.50;;;7.63;46.68
73671;BME280;61968;48.178;11.566;2023-03-14T04:53:54;94135.16;;;7.98;46.02
73671;BME280;61968;48.178;11.566;2023-03-14T04:56:21;94130.63;;;7.93;46.01
73671;BME280;61968;48.178;11.566;2023-03-14T04:58:47;94121.50;;;8.01;45.28
73671;BME280;61968;48.178;11.566;2023-03-14T05:01:14;94106.84;;;8.20;45.25
73671;BME280;61968;48.178;11.566;2023-03-14T05:03:41;94106.00;;;8.09;45.01
73671;BME280;61968;48.178;11.566;2023-03-14T05:06:08;94100.94;;;8.45;53.85
73671;BME280;61968;48.178;11.566;2023-03-14T05:08:35;94092.50;;;9.16;47.22
73671;BME280;61968;48.178;11.566;2023-03-14T05:11:01;94099.13;;;9.29;44.80
73671;BME280;61968;48.178;11.566;2023-03-14T05:13:29;94096.31;;;8.68;44.28
73671;BME280;61968;48.178;11.566;2023-03-14T05:16:03;94102.16;;;8.80;43.87
73671;BME280;61968;48.178;11.566;2023-03-14T05:18:30;94098.59;;;9.42;44.85
73671;BME280;61968;48.178;11.566;2023-03-14T05:20:57;94103.25;;;8.94;43.23
73671;BME280;61968;48.178;11.566;2023-03-14T05:23:24;94104.81;;;8.80;42.86
73671;BME280;61968;48.178;11.566;2023-03-14T05:25:50;94100.84;;;8.30;44.27
73671;BME280;61968;48.178;11.566;2023-03-14T05:28:17;94090.78;;;8.22;44.30
73671;BME280;61968;48.178;11.566;2023-03-14T05:30:43;94099.69;;;8.10;44.64
73671;BME280;61968;48.178;11.566;2023-03-14T05:33:10;94100.47;;;7.69;45.34
73671;BME280;61968;48.178;11.566;2023-03-14T05:35:37;94104.94;;;7.73;45.95
73671;BME280;61968;48.178;11.566;2023-03-14T05:38:05;94108.31;;;7.63;46.03
73671;BME280;61968;48.178;11.566;2023-03-14T05:40:31;94107.28;;;8.02;45.17
73671;BME280;61968;48.178;11.566;2023-03-14T05:42:58;94105.38;;;7.97;45.15
73671;BME280;61968;48.178;11.566;2023-03-14T05:45:24;94102.69;;;7.87;45.59
73671;BME280;61968;48.178;11.566;2023-03-14T05:47:50;94105.56;;;7.85;45.55
73671;BME280;61968;48.178;11.566;2023-03-14T05:50:17;94108.19;;;7.85;45.06
73671;BME280;61968;48.178;11.566;2023-03-14T05:52:43;94101.91;;;7.86;45.42
73671;BME280;61968;48.178;11.566;2023-03-14T05:55:11;94101.91;;;7.54;46.01
73671;BME280;61968;48.178;11.566;2023-03-14T05:57:38;94088.47;;;7.83;45.13
73671;BME280;61968;48.178;11.566;2023-03-14T06:00:05;94097.91;;;7.79;45.75
73671;BME280;61968;48.178;11.566;2023-03-14T06:02:32;94085.28;;;7.81;45.62
73671;BME280;61968;48.178;11.566;2023-03-14T06:04:58;94081.22;;;8.05;44.72
73671;BME280;61968;48.178;11.566;2023-03-14T06:07:25;94081.69;;;7.92;45.33
73671;BME280;61968;48.178;11.566;2023-03-14T06:09:51;94086.19;;;7.97;45.05
73671;BME280;61968;48.178;11.566;2023-03-14T06:12:19;94085.66;;;8.00;44.70
73671;BME280;61968;48.178;11.566;2023-03-14T06:14:45;94085.53;;;8.17;44.34
73671;BME280;61968;48.178;11.566;2023-03-14T06:17:11;94078.13;;;8.14;44.15
73671;BME280;61968;48.178;11.566;2023-03-14T06:19:38;94070.78;;;8.21;44.12
73671;BME280;61968;48.178;11.566;2023-03-14T06:22:04;94072.47;;;8.37;44.04
73671;BME280;61968;48.178;11.566;2023-03-14T06:24:31;94082.47;;;8.40;43.71
73671;BME280;61968;48.178;11.566;2023-03-14T06:26:57;94074.81;;;8.39;44.11
73671;BME280;61968;48.178;11.566;2023-03-14T06:29:25;94068.56;;;8.50;43.56
73671;BME280;61968;48.178;11.566;2023-03-14T06:31:51;94069.31;;;8.45;43.47
73671;BME280;61968;48.178;11.566;2023-03-14T06:34:18;94060.81;;;8.23;43.90
73671;BME280;61968;48.178;11.566;2023-03-14T06:36:44;94053.94;;;8.17;44.16
73671;BME280;61968;48.178;11.566;2023-03-14T06:39:11;94058.16;;;8.23;44.14
73671;BME280;61968;48.178;11.566;2023-03-14T06:41:37;94045.31;;;8.31;43.60
73671;BME280;61968;48.178;11.566;2023-03-14T06:44:04;94038.22;;;8.42;43.29
73671;BME280;61968;48.178;11.566;2023-03-14T06:46:32;94038.13;;;8.22;44.03
73671;BME280;61968;48.178;11.566;2023-03-14T06:48:58;94037.06;;;8.18;43.41
73671;BME280;61968;48.178;11.566;2023-03-14T06:51:25;94043.34;;;8.11;43.89
73671;BME280;61968;48.178;11.566;2023-03-14T06:53:51;94039.66;;;8.12;43.71
73671;BME280;61968;48.178;11.566;2023-03-14T06:56:17;94052.69;;;8.34;43.40
73671;BME280;61968;48.178;11.566;2023-03-14T06:58:44;94051.16;;;8.44;42.65
73671;BME280;61968;48.178;11.566;2023-03-14T07:01:18;94071.94;;;8.40;43.03
73671;BME280;61968;48.178;11.566;2023-03-14T07:03:47;94071.72;;;8.47;43.07
73671;BME280;61968;48.178;11.566;2023-03-14T07:06:14;94070.91;;;8.46;42.83
73671;BME280;61968;48.178;11.566;2023-03-14T07:08:40;94087.75;;;8.45;42.75
73671;BME280;61968;48.178;11.566;2023-03-14T07:11:08;94095.19;;;8.58;42.42
73671;BME280;61968;48.178;11.566;2023-03-14T07:13:36;94087.75;;;8.45;42.59
73671;BME280;61968;48.178;11.566;2023-03-14T07:16:02;94089.84;;;8.38;43.12
73671;BME280;61968;48.178;11.566;2023-03-14T07:18:29;94096.63;;;8.29;42.78
73671;BME280;61968;48.178;11.566;2023-03-14T07:20:57;94073.47;;;8.31;42.82
73671;BME280;61968;48.178;11.566;2023-03-14T07:23:23;94073.47;;;8.31;42.60
73671;BME280;61968;48.178;11.566;2023-03-14T07:25:50;94076.63;;;8.33;42.83
73671;BME280;61968;48.178;11.566;2023-03-14T07:28:18;94074.84;;;8.49;42.39
73671;BME280;61968;48.178;11.566;2023-03-14T07:30:46;94072.63;;;8.20;42.93
73671;BME280;61968;48.178;11.566;2023-03-14T07:33:12;94080.50;;;8.15;42.78
73671;BME280;61968;48.178;11.566;2023-03-14T07:35:39;94084.50;;;8.23;42.81
73671;BME280;61968;48.178;11.566;2023-03-14T07:38:07;94077.50;;;8.44;42.59
73671;BME280;61968;48.178;11.566;2023-03-14T07:40:33;94077.78;;;8.57;42.08
73671;BME280;61968;48.178;11.566;2023-03-14T07:42:59;94068.84;;;8.58;41.87
73671;BME280;61968;48.178;11.566;2023-03-14T07:45:26;94075.69;;;8.49;41.62
73671;BME280;61968;48.178;11.566;2023-03-14T07:47:52;94070.47;;;8.65;41.50
73671;BME280;61968;48.178;11.566;2023-03-14T07:50:22;94058.38;;;8.69;41.41
73671;BME280;61968;48.178;11.566;2023-03-14T07:52:49;94062.59;;;8.70;41.22
73671;BME280;61968;48.178;11.566;2023-03-14T07:55:17;94064.91;;;8.66;41.89
73671;BME280;61968;48.178;11.566;2023-03-14T07:57:43;94059.13;;;8.59;41.53
73671;BME280;61968;48.178;11.566;2023-03-14T08:00:11;94062.25;;;8.61;41.29
73671;BME280;61968;48.178;11.566;2023-03-14T08:02:39;94065.69;;;8.56;41.56
73671;BME280;61968;48.178;11.566;2023-03-14T08:05:06;94067.50;;;8.51;42.08
73671;BME280;61968;48.178;11.566;2023-03-14T08:07:33;94061.41;;;8.40;41.44
73671;BME280;61968;48.178;11.566;2023-03-14T08:09:59;94071.66;;;8.37;41.87
73671;BME280;61968;48.178;11.566;2023-03-14T08:12:27;94069.84;;;8.42;41.99
73671;BME280;61968;48.178;11.566;2023-03-14T08:14:53;94072.06;;;8.13;42.65
73671;BME280;61968;48.178;11.566;2023-03-14T08:17:20;94081.31;;;8.21;42.53
73671;BME280;61968;48.178;11.566;2023-03-14T08:19:46;94077.25;;;8.50;42.16
73671;BME280;61968;48.178;11.566;2023-03-14T08:22:13;94076.75;;;8.64;41.30
73671;BME280;61968;48.178;11.566;2023-03-14T08:24:39;94068.91;;;8.69;41.26
73671;BME280;61968;48.178;11.566;2023-03-14T08:27:06;94071.50;;;8.64;41.42
73671;BME280;61968;48.178;11.566;2023-03-14T08:29:34;94079.47;;;8.79;40.72
73671;BME280;61968;48.178;11.566;2023-03-14T08:32:00;94074.72;;;8.76;40.86
73671;BME280;61968;48.178;11.566;2023-03-14T08:34:27;94082.13;;;8.74;41.16
73671;BME280;61968;48.178;11.566;2023-03-14T08:36:53;94082.66;;;8.81;40.84
73671;BME280;61968;48.178;11.566;2023-03-14T08:39:21;94084.22;;;8.82;40.64
73671;BME280;61968;48.178;11.566;2023-03-14T08:41:49;94079.88;;;8.50;41.08
73671;BME280;61968;48.178;11.566;2023-03-14T08:44:15;94083.56;;;8.54;40.97
73671;BME280;61968;48.178;11.566;2023-03-14T08:46:43;94090.88;;;8.32;41.23
73671;BME280;61968;48.178;11.566;2023-03-14T08:49:10;94097.84;;;8.58;41.12
73671;BME280;61968;48.178;11.566;2023-03-14T08:51:36;94101.44;;;8.37;41.65
73671;BME280;61968;48.178;11.566;2023-03-14T08:54:02;94095.94;;;8.49;41.16
73671;BME280;61968;48.178;11.566;2023-03-14T08:56:29;94100.88;;;8.35;40.82
73671;BME280;61968;48.178;11.566;2023-03-14T08:58:55;94100.16;;;8.55;40.83
73671;BME280;61968;48.178;11.566;2023-03-14T09:01:22;94107.28;;;8.49;40.75
73671;BME280;61968;48.178;11.566;2023-03-14T09:03:51;94110.59;;;8.29;41.23
73671;BME280;61968;48.178;11.566;2023-03-14T09:06:18;94116.38;;;8.26;40.71
73671;BME280;61968;48.178;11.566;2023-03-14T09:08:44;94116.41;;;8.31;41.20
73671;BME280;61968;48.178;11.566;2023-03-14T09:11:11;94115.50;;;8.63;40.36
73671;BME280;61968;48.178;11.566;2023-03-14T09:13:38;94111.66;;;8.86;40.19
73671;BME280;61968;48.178;11.566;2023-03-14T09:16:05;94114.78;;;8.78;40.03
73671;BME280;61968;48.178;11.566;2023-03-14T09:18:32;94115.34;;;8.80;39.93
73671;BME280;61968;48.178;11.566;2023-03-14T09:21:00;94102.22;;;8.95;39.78
73671;BME280;61968;48.178;11.566;2023-03-14T09:23:27;94104.31;;;9.03;40.16
73671;BME280;61968;48.178;11.566;2023-03-14T09:25:54;94105.09;;;8.94;39.49
73671;BME280;61968;48.178;11.566;2023-03-14T09:28:21;94108.38;;;8.64;40.27
73671;BME280;61968;48.178;11.566;2023-03-14T09:30:47;94111.41;;;8.83;40.04
73671;BME280;61968;48.178;11.566;2023-03-14T09:33:14;94113.84;;;9.05;39.47
73671;BME280;61968;48.178;11.566;2023-03-14T09:35:41;94104.31;;;8.93;39.67
73671;BME280;61968;48.178;11.566;2023-03-14T09:38:09;94103.25;;;8.94;38.91
73671;BME280;61968;48.178;11.566;2023-03-14T09:40:36;94093.94;;;8.19;40.00
73671;BME280;61968;48.178;11.566;2023-03-14T09:43:03;94100.31;;;8.28;39.73
73671;BME280;61968;48.178;11.566;2023-03-14T09:45:33;94087.13;;;8.23;40.08
73671;BME280;61968;48.178;11.566;2023-03-14T09:48:02;94090.47;;;8.66;39.90
73671;BME280;61968;48.178;11.566;2023-03-14T09:50:36;94087.44;;;8.94;38.79
73671;BME280;61968;48.178;11.566;2023-03-14T09:53:07;94085.81;;;8.88;39.11
73671;BME280;61968;48.178;11.566;2023-03-14T09:55:37;94086.16;;;9.17;38.39
73671;BME280;61968;48.178;11.566;2023-03-14T09:58:08;94083.81;;;9.16;38.18
73671;BME280;61968;48.178;11.566;2023-03-14T10:00:36;94076.94;;;9.30;37.95
73671;BME280;61968;48.178;11.566;2023-03-14T10:03:19;94082.75;;;9.32;38.09
73671;BME280;61968;48.178;11.566;2023-03-14T10:05:48;94076.91;;;8.99;38.51
73671;BME280;61968;48.178;11.566;2023-03-14T10:08:14;94081.16;;;9.21;38.47
73671;BME280;61968;48.178;11.566;2023-03-14T10:10:42;94082.75;;;9.17;38.69
73671;BME280;61968;48.178;11.566;2023-03-14T10:13:14;94085.13;;;9.34;38.47
73671;BME280;61968;48.178;11.566;2023-03-14T10:15:41;94080.66;;;9.44;37.78
73671;BME280;61968;48.178;11.566;2023-03-14T10:18:13;94076.97;;;9.45;38.09
73671;BME280;61968;48.178;11.566;2023-03-14T10:20:41;94074.31;;;9.35;38.45
73671;BME280;61968;48.178;11.566;2023-03-14T10:23:22;94063.25;;;9.64;38.05
73671;BME280;61968;48.178;11.566;2023-03-14T10:26:03;94060.91;;;9.52;38.42
73671;BME280;61968;48.178;11.566;2023-03-14T10:28:32;94063.25;;;9.69;37.82
73671;BME280;61968;48.178;11.566;2023-03-14T10:30:59;94059.81;;;9.63;37.63
73671;BME280;61968;48.178;11.566;2023-03-14T10:33:28;94052.69;;;9.84;37.51
73671;BME280;61968;48.178;11.566;2023-03-14T10:35:56;94054.81;;;9.57;37.04
73671;BME280;61968;48.178;11.566;2023-03-14T10:38:25;94053.47;;;9.18;38.30
73671;BME280;61968;48.178;11.566;2023-03-14T10:40:53;94056.38;;;9.17;37.81
73671;BME280;61968;48.178;11.566;2023-03-14T10:43:25;94053.75;;;9.58;37.93
73671;BME280;61968;48.178;11.566;2023-03-14T10:45:55;94048.75;;;9.51;37.14
73671;BME280;61968;48.178;11.566;2023-03-14T10:48:29;94064.31;;;9.37;36.98
73671;BME280;61968;48.178;11.566;2023-03-14T10:50:57;94066.63;;;8.98;38.01
73671;BME280;61968;48.178;11.566;2023-03-14T10:53:33;94059.50;;;9.03;37.68
73671;BME280;61968;48.178;11.566;2023-03-14T10:56:02;94071.16;;;9.23;37.34
73671;BME280;61968;48.178;11.566;2023-03-14T10:58:33;94065.88;;;9.33;36.89
73671;BME280;61968;48.178;11.566;2023-03-14T11:01:09;94058.00;;;9.43;36.49
73671;BME280;61968;48.178;11.566;2023-03-14T11:03:47;94068.50;;;9.33;36.83
73671;BME280;61968;48.178;11.566;2023-03-14T11:06:21;94072.72;;;9.14;37.61
73671;BME280;61968;48.178;11.566;2023-03-14T11:08:53;94073.53;;;9.30;37.26
73671;BME280;61968;48.178;11.566;2023-03-14T11:11:25;94057.97;;;9.33;36.77
73671;BME280;61968;48.178;11.566;2023-03-14T11:14:03;94063.25;;;9.23;37.37
73671;BME280;61968;48.178;11.566;2023-03-14T11:16:36;94062.44;;;9.33;36.92
73671;BME280;61968;48.178;11.566;2023-03-14T11:19:31;94067.38;;;8.88;37.65
73671;BME280;61968;48.178;11.566;2023-03-14T11:22:05;94063.78;;;9.25;36.20
73671;BME280;61968;48.178;11.566;2023-03-14T11:25:05;94061.66;;;9.47;35.92
73671;BME280;61968;48.178;11.566;2023-03-14T11:27:41;94057.72;;;9.45;35.67
73671;BME280;61968;48.178;11.566;2023-03-14T11:30:17;94060.78;;;8.80;37.04
73671;BME280;61968;48.178;11.566;2023-03-14T11:32:46;94060.84;;;9.11;36.59
73671;BME280;61968;48.178;11.566;2023-03-14T11:35:20;94049.78;;;9.24;36.26
73671;BME280;61968;48.178;11.566;2023-03-14T11:37:52;94065.06;;;9.02;36.70
73671;BME280;61968;48.178;11.566;2023-03-14T11:40:22;94047.41;;;9.08;36.55
73671;BME280;61968;48.178;11.566;2023-03-14T11:42:56;94042.13;;;9.08;36.89
73671;BME280;61968;48.178;11.566;2023-03-14T11:45:29;94039.97;;;8.94;37.34
73671;BME280;61968;48.178;11.566;2023-03-14T11:48:09;94031.59;;;9.28;36.51
73671;BME280;61968;48.178;11.566;2023-03-14T11:50:42;94035.81;;;9.49;36.09
73671;BME280;61968;48.178;11.566;2023-03-14T11:53:12;94026.03;;;8.99;36.65
73671;BME280;61968;48.178;11.566;2023-03-14T11:55:41;94029.75;;;9.34;37.18
73671;BME280;61968;48.178;11.566;2023-03-14T11:58:13;94033.16;;;9.14;37.14
73671;BME280;61968;48.178;11.566;2023-03-14T12:00:43;94027.91;;;9.29;36.53
73671;BME280;61968;48.178;11.566;2023-03-14T12:03:14;94016.03;;;9.67;36.25
73671;BME280;61968;48.178;11.566;2023-03-14T12:05:46;94022.06;;;9.93;36.15
73671;BME280;61968;48.178;11.566;2023-03-14T12:08:37;94026.84;;;9.66;36.06
73671;BME280;61968;48.178;11.566;2023-03-14T12:11:10;94017.06;;;9.66;35.49
73671;BME280;61968;48.178;11.566;2023-03-14T12:13:39;94015.75;;;9.89;34.83
73671;BME280;61968;48.178;11.566;2023-03-14T12:16:23;94017.59;;;9.63;35.21
73671;BME280;61968;48.178;11.566;2023-03-14T12:18:52;94033.19;;;9.29;35.97
73671;BME280;61968;48.178;11.566;2023-03-14T12:21:20;94026.56;;;9.37;35.41
73671;BME280;61968;48.178;11.566;2023-03-14T12:23:49;94031.84;;;9.11;35.79
73671;BME280;61968;48.178;11.566;2023-03-14T12:26:18;94020.00;;;9.14;35.93
73671;BME280;61968;48.178;11.566;2023-03-14T12:28:49;94028.16;;;9.02;36.43
73671;BME280;61968;48.178;11.566;2023-03-14T12:31:41;94023.13;;;9.06;36.88
73671;BME280;61968;48.178;11.566;2023-03-14T12:34:29;94028.34;;;8.75;37.50
73671;BME280;61968;48.178;11.566;2023-03-14T12:37:12;94026.84;;;9.05;37.07
73671;BME280;61968;48.178;11.566;2023-03-14T12:39:47;94023.66;;;9.48;36.52
73671;BME280;61968;48.178;11.566;2023-03-14T12:42:21;94021.53;;;8.99;36.55
73671;BME280;61968;48.178;11.566;2023-03-14T12:44:50;94031.06;;;9.11;37.40
73671;BME280;61968;48.178;11.566;2023-03-14T12:47:42;94010.75;;;9.62;37.90
73671;BME280;61968;48.178;11.566;2023-03-14T12:50:18;94021.53;;;9.61;38.39
73671;BME280;61968;48.178;11.566;2023-03-14T12:52:58;94026.84;;;9.66;36.79
73671;BME280;61968;48.178;11.566;2023-03-14T12:55:36;94031.84;;;9.37;36.25
73671;BME280;61968;48.178;11.566;2023-03-14T12:58:08;94032.06;;;8.94;37.56
73671;BME280;61968;48.178;11.566;2023-03-14T13:00:39;94028.94;;;9.02;37.62
73671;BME280;61968;48.178;11.566;2023-03-14T13:03:18;94048.38;;;8.76;37.88
73671;BME280;61968;48.178;11.566;2023-03-14T13:05:55;94051.34;;;9.15;37.45